Time;durP1;ratioP1;P1;durP2;ratioP2;P2;SDS_P1;SDS_P2;PMS_P1;PMS_P2;Temp;Humidity;BMP_temperature;BMP_pressure;BME280_temperature;BME280_humidity;BME280_pressure;Samples;Min_cycle;Max_cycle;Signal;HPM_P1;HPM_P2
2022/06/12 00:00:36;;;;;;;4.80;2.73;;;;;;;;;;5008141;28;20217;-44
2022/06/12 00:03:04;;;;;;;5.63;3.03;;;;;;;;;;4998632;28;20215;-41
2022/06/12 00:05:35;;;;;;;3.37;3.07;;;;;;;;;;5002989;28;20221;-43
2022/06/12 00:08:03;;;;;;;3.83;2.77;;;;;;;;;;5008580;28;20202;-43
2022/06/12 00:10:30;;;;;;;2.60;2.33;;;;;;;;;;5008002;28;20216;-47
2022/06/12 00:12:57;;;;;;;4.40;2.37;;;;;;;;;;5001080;28;20217;-45
2022/06/12 00:15:26;;;;;;;4.40;3.07;;;;;;;;;;5000461;28;20203;-41
2022/06/12 00:17:54;;;;;;;4.37;2.40;;;;;;;;;;4992400;28;20257;-43
2022/06/12 00:20:23;;;;;;;3.67;2.40;;;;;;;;;;5004744;28;20320;-44
2022/06/12 00:22:52;;;;;;;3.83;2.73;;;;;;;;;;5006455;28;20210;-44
2022/06/12 00:25:20;;;;;;;6.77;2.63;;;;;;;;;;5006059;28;20205;-43
2022/06/12 00:27:48;;;;;;;3.33;2.60;;;;;;;;;;5000134;28;20292;-44
2022/06/12 00:30:16;;;;;;;4.10;3.40;;;;;;;;;;5001114;28;20213;-40
2022/06/12 00:32:44;;;;;;;3.03;2.83;;;;;;;;;;5003987;28;20206;-42
2022/06/12 00:35:12;;;;;;;3.23;2.80;;;;;;;;;;5006056;28;20234;-46
2022/06/12 00:37:39;;;;;;;4.53;2.37;;;;;;;;;;5008014;28;20233;-44
2022/06/12 00:40:08;;;;;;;3.00;2.60;;;;;;;;;;5008109;28;20236;-43
2022/06/12 00:45:23;;;;;;;3.30;2.60;;;;;;;;;;5003318;28;20214;-31
2022/06/12 00:47:50;;;;;;;3.67;2.90;;;;;;;;;;5001775;28;20225;-32
2022/06/12 00:50:18;;;;;;;15.77;2.97;;;;;;;;;;5007150;28;20206;-37
2022/06/12 00:52:47;;;;;;;3.23;3.00;;;;;;;;;;5010246;28;20214;-35
2022/06/12 00:55:24;;;;;;;3.57;2.80;;;;;;;;;;5012396;28;20225;-37
2022/06/12 00:57:52;;;;;;;4.77;3.23;;;;;;;;;;5005412;28;20250;-39
2022/06/12 01:00:19;;;;;;;3.93;3.43;;;;;;;;;;4999009;28;20237;-38
2022/06/12 01:02:46;;;;;;;4.23;3.00;;;;;;;;;;5000604;28;20240;-36
2022/06/12 01:08:02;;;;;;;3.10;2.90;;;;;;;;;;4999116;28;20273;-37
2022/06/12 01:10:31;;;;;;;3.60;3.10;;;;;;;;;;5001726;28;20203;-36
2022/06/12 01:13:01;;;;;;;3.03;2.77;;;;;;;;;;5003462;28;20294;-35
2022/06/12 01:15:30;;;;;;;4.53;2.50;;;;;;;;;;5011718;28;20201;-35
2022/06/12 01:17:58;;;;;;;2.97;2.70;;;;;;;;;;5000317;28;20221;-38
2022/06/12 01:20:27;;;;;;;3.90;3.37;;;;;;;;;;5002432;28;20211;-32
2022/06/12 01:23:20;;;;;;;3.80;3.10;;;;;;;;;;5010911;28;20337;-32
2022/06/12 01:26:03;;;;;;;3.00;2.70;;;;;;;;;;5011425;28;20229;-40
2022/06/12 01:28:46;;;;;;;2.37;2.27;;;;;;;;;;4977839;28;20206;-33
2022/06/12 01:31:18;;;;;;;4.67;2.50;;;;;;;;;;5009600;28;20206;-36
2022/06/12 01:33:47;;;;;;;8.43;3.67;;;;;;;;;;5007367;28;20300;-36
2022/06/12 01:36:21;;;;;;;3.97;2.97;;;;;;;;;;5003306;28;20214;-32
2022/06/12 01:38:53;;;;;;;9.00;3.37;;;;;;;;;;5008356;28;20225;-35
2022/06/12 01:41:27;;;;;;;3.47;2.93;;;;;;;;;;5001956;28;20207;-30
2022/06/12 01:44:02;;;;;;;3.57;3.00;;;;;;;;;;4999045;28;20210;-33
2022/06/12 01:46:38;;;;;;;3.30;3.00;;;;;;;;;;4994176;28;20236;-34
2022/06/12 01:49:07;;;;;;;3.07;2.83;;;;;;;;;;5002711;28;20197;-30
2022/06/12 01:51:37;;;;;;;3.13;2.80;;;;;;;;;;5018763;28;20216;-33
2022/06/12 01:54:08;;;;;;;3.53;2.90;;;;;;;;;;5011618;28;20213;-34
2022/06/12 01:56:38;;;;;;;3.83;2.80;;;;;;;;;;5006474;28;20228;-33
2022/06/12 01:59:08;;;;;;;2.73;2.53;;;;;;;;;;4997179;28;20223;-32
2022/06/12 02:01:40;;;;;;;2.67;2.47;;;;;;;;;;5004321;28;20213;-34
2022/06/12 02:04:10;;;;;;;4.47;2.87;;;;;;;;;;4993874;28;20214;-36
2022/06/12 02:06:38;;;;;;;4.37;2.93;;;;;;;;;;5006788;28;20234;-35
2022/06/12 02:09:07;;;;;;;3.23;2.90;;;;;;;;;;5011595;28;20201;-35
2022/06/12 02:14:29;;;;;;;3.50;2.80;;;;;;;;;;4997415;28;20208;-33
2022/06/12 02:16:57;;;;;;;2.63;2.37;;;;;;;;;;5006410;28;20218;-36
2022/06/12 02:19:27;;;;;;;2.47;2.30;;;;;;;;;;4997445;28;20230;-32
2022/06/12 02:21:56;;;;;;;2.80;2.60;;;;;;;;;;5009152;28;20209;-39
2022/06/12 02:24:25;;;;;;;3.70;2.83;;;;;;;;;;5007035;28;20208;-34
2022/06/12 02:26:59;;;;;;;5.57;2.80;;;;;;;;;;5001242;28;20229;-33
2022/06/12 02:29:31;;;;;;;3.77;2.63;;;;;;;;;;5008417;28;20204;-37
2022/06/12 02:31:59;;;;;;;2.67;2.47;;;;;;;;;;5002137;28;20206;-39
2022/06/12 02:34:27;;;;;;;2.70;2.50;;;;;;;;;;5004406;28;20215;-30
2022/06/12 02:36:56;;;;;;;3.00;2.80;;;;;;;;;;4999794;28;20226;-36
2022/06/12 02:39:25;;;;;;;3.93;2.73;;;;;;;;;;4996012;28;20232;-35
2022/06/12 02:41:55;;;;;;;2.33;2.23;;;;;;;;;;4993536;28;20212;-37
2022/06/12 02:44:24;;;;;;;4.03;2.77;;;;;;;;;;5010148;28;20208;-35
2022/06/12 02:46:55;;;;;;;4.37;2.70;;;;;;;;;;5005471;28;20228;-35
2022/06/12 02:49:23;;;;;;;3.93;2.50;;;;;;;;;;5002730;28;20209;-36
2022/06/12 02:51:53;;;;;;;3.30;3.00;;;;;;;;;;5007499;28;20232;-36
2022/06/12 02:54:25;;;;;;;2.93;2.70;;;;;;;;;;5010562;28;20202;-36
2022/06/12 02:56:56;;;;;;;4.20;2.50;;;;;;;;;;4997319;28;20233;-33
2022/06/12 02:59:28;;;;;;;3.10;2.80;;;;;;;;;;4995095;28;20240;-36
2022/06/12 03:02:03;;;;;;;5.07;2.87;;;;;;;;;;5003394;28;20208;-35
2022/06/12 03:04:33;;;;;;;2.87;2.67;;;;;;;;;;5005392;28;20197;-32
2022/06/12 03:07:00;;;;;;;3.73;2.40;;;;;;;;;;4996661;28;20225;-39
2022/06/12 03:09:27;;;;;;;2.93;2.33;;;;;;;;;;4997334;28;20287;-36
2022/06/12 03:11:55;;;;;;;4.67;2.80;;;;;;;;;;5002137;28;20206;-37
2022/06/12 03:14:23;;;;;;;3.20;2.80;;;;;;;;;;4998569;28;20205;-31
2022/06/12 03:16:51;;;;;;;3.70;2.63;;;;;;;;;;5001862;28;20224;-33
2022/06/12 03:19:21;;;;;;;3.23;2.90;;;;;;;;;;5001273;28;20222;-33
2022/06/12 03:21:51;;;;;;;3.17;2.60;;;;;;;;;;4994623;28;20205;-35
2022/06/12 03:24:42;;;;;;;2.90;2.70;;;;;;;;;;5001828;28;20200;-31
2022/06/12 03:27:20;;;;;;;2.57;2.40;;;;;;;;;;4991065;28;20239;-37
2022/06/12 03:29:49;;;;;;;2.53;2.33;;;;;;;;;;5012663;28;20215;-34
2022/06/12 03:32:20;;;;;;;3.50;2.70;;;;;;;;;;5003717;28;20220;-33
2022/06/12 03:34:55;;;;;;;2.60;2.40;;;;;;;;;;4997630;28;20219;-35
2022/06/12 03:37:26;;;;;;;2.70;2.50;;;;;;;;;;5007994;28;20219;-36
2022/06/12 03:39:59;;;;;;;2.70;2.50;;;;;;;;;;5013318;28;20353;-36
2022/06/12 03:42:31;;;;;;;2.27;2.10;;;;;;;;;;5008944;28;20213;-36
2022/06/12 03:45:01;;;;;;;3.27;2.67;;;;;;;;;;5011718;28;20216;-35
2022/06/12 03:47:31;;;;;;;3.03;2.43;;;;;;;;;;4996180;28;20221;-31
2022/06/12 03:50:03;;;;;;;2.20;2.10;;;;;;;;;;5002715;28;20204;-37
2022/06/12 03:52:31;;;;;;;2.57;2.20;;;;;;;;;;4999865;28;20204;-33
2022/06/12 03:55:01;;;;;;;3.10;2.57;;;;;;;;;;5012158;28;20209;-36
2022/06/12 04:00:18;;;;;;;2.60;2.40;;;;;;;;;;5004678;28;20226;-34
2022/06/12 04:02:47;;;;;;;2.53;2.20;;;;;;;;;;5004706;28;20211;-35
2022/06/12 04:05:19;;;;;;;2.80;2.60;;;;;;;;;;5008055;28;20208;-36
2022/06/12 04:07:48;;;;;;;3.93;3.03;;;;;;;;;;4997160;28;20343;-33
2022/06/12 04:10:17;;;;;;;2.67;2.47;;;;;;;;;;4995249;28;20204;-38
2022/06/12 04:12:44;;;;;;;2.80;2.50;;;;;;;;;;5010748;28;20208;-33
2022/06/12 04:15:15;;;;;;;2.40;2.30;;;;;;;;;;5014289;28;20217;-33
2022/06/12 04:17:43;;;;;;;3.00;2.80;;;;;;;;;;5011164;28;20228;-32
2022/06/12 04:20:14;;;;;;;2.87;2.53;;;;;;;;;;5012647;28;20219;-33
2022/06/12 04:22:48;;;;;;;2.83;2.63;;;;;;;;;;4997561;28;20212;-32
2022/06/12 04:25:22;;;;;;;2.90;2.53;;;;;;;;;;5009542;28;20207;-32
2022/06/12 04:27:49;;;;;;;3.30;2.53;;;;;;;;;;5012444;28;20233;-29
2022/06/12 04:30:19;;;;;;;3.23;2.03;;;;;;;;;;5015502;28;20204;-35
2022/06/12 04:32:46;;;;;;;3.03;2.30;;;;;;;;;;5006955;28;20269;-34
2022/06/12 04:35:13;;;;;;;3.87;2.77;;;;;;;;;;4997809;28;20210;-31
2022/06/12 04:37:42;;;;;;;3.50;2.30;;;;;;;;;;5001740;28;20227;-34
2022/06/12 04:40:16;;;;;;;2.70;2.50;;;;;;;;;;5007934;28;20224;-34
2022/06/12 04:42:43;;;;;;;2.73;2.47;;;;;;;;;;4996182;28;20208;-32
2022/06/12 04:45:10;;;;;;;3.93;2.47;;;;;;;;;;5006666;28;20290;-30
2022/06/12 04:47:37;;;;;;;2.67;2.40;;;;;;;;;;5000842;28;20237;-31
2022/06/12 04:50:05;;;;;;;2.93;2.03;;;;;;;;;;4994645;28;20206;-35
2022/06/12 04:52:32;;;;;;;2.90;2.70;;;;;;;;;;5010500;28;20207;-30
2022/06/12 04:55:02;;;;;;;3.17;2.83;;;;;;;;;;5006231;28;20213;-35
2022/06/12 04:57:32;;;;;;;3.43;3.13;;;;;;;;;;5013755;28;20225;-35
2022/06/12 04:59:59;;;;;;;4.90;3.00;;;;;;;;;;5011728;28;20219;-34
2022/06/12 05:02:26;;;;;;;2.93;2.70;;;;;;;;;;4995155;28;20201;-30
2022/06/12 05:04:53;;;;;;;5.17;3.40;;;;;;;;;;5001129;28;20208;-29
2022/06/12 05:07:20;;;;;;;3.23;3.00;;;;;;;;;;5003408;28;20244;-30
2022/06/12 05:09:47;;;;;;;8.17;2.63;;;;;;;;;;5014266;28;20207;-34
2022/06/12 05:12:15;;;;;;;5.73;3.33;;;;;;;;;;5001718;28;20204;-32
2022/06/12 05:14:44;;;;;;;3.13;2.83;;;;;;;;;;5011028;28;20216;-34
2022/06/12 05:17:12;;;;;;;4.10;2.67;;;;;;;;;;4999312;28;20238;-29
2022/06/12 05:19:44;;;;;;;4.00;2.70;;;;;;;;;;5005555;28;20238;-38
2022/06/12 05:22:12;;;;;;;2.50;2.30;;;;;;;;;;5008403;28;20253;-35
2022/06/12 05:24:39;;;;;;;3.75;2.60;;;;;;;;;;5014518;28;20200;-32
2022/06/12 05:27:08;;;;;;;2.50;2.30;;;;;;;;;;5008123;28;20578;-31
2022/06/12 05:29:39;;;;;;;3.35;2.42;;;;;;;;;;5002203;28;20291;-33
2022/06/12 05:32:09;;;;;;;3.90;2.30;;;;;;;;;;4997335;28;20211;-34
2022/06/12 05:34:36;;;;;;;3.05;2.55;;;;;;;;;;4999657;28;20208;-33
2022/06/12 05:37:04;;;;;;;3.35;2.45;;;;;;;;;;4995512;28;20311;-40
2022/06/12 05:39:31;;;;;;;2.60;2.40;;;;;;;;;;5009211;28;20330;-29
2022/06/12 05:41:58;;;;;;;2.35;2.15;;;;;;;;;;5002078;28;20229;-33
2022/06/12 05:44:25;;;;;;;2.55;2.30;;;;;;;;;;5004455;28;20208;-36
2022/06/12 05:46:53;;;;;;;2.65;2.40;;;;;;;;;;4997243;28;20231;-37
2022/06/12 05:49:21;;;;;;;3.15;2.72;;;;;;;;;;5008625;28;20195;-35
2022/06/12 05:51:48;;;;;;;3.20;2.90;;;;;;;;;;5012701;28;20203;-39
2022/06/12 05:54:15;;;;;;;3.03;2.55;;;;;;;;;;4996684;28;20211;-36
2022/06/12 05:56:46;;;;;;;2.90;2.70;;;;;;;;;;4997435;28;20236;-37
2022/06/12 05:59:14;;;;;;;3.33;2.70;;;;;;;;;;5010813;28;20223;-37
2022/06/12 06:01:41;;;;;;;3.05;2.75;;;;;;;;;;4999330;28;20246;-32
2022/06/12 06:04:09;;;;;;;3.90;2.80;;;;;;;;;;5000828;28;20200;-32
2022/06/12 06:06:42;;;;;;;3.03;2.72;;;;;;;;;;5001050;28;20249;-34
2022/06/12 06:09:11;;;;;;;6.10;2.80;;;;;;;;;;5012933;28;20256;-30
2022/06/12 06:11:39;;;;;;;3.20;2.75;;;;;;;;;;5007863;28;20216;-32
2022/06/12 06:14:06;;;;;;;3.45;2.83;;;;;;;;;;4995381;28;20209;-34
2022/06/12 06:16:34;;;;;;;3.45;2.65;;;;;;;;;;4997749;28;20358;-33
2022/06/12 06:19:01;;;;;;;3.53;2.75;;;;;;;;;;4999445;28;20207;-35
2022/06/12 06:21:28;;;;;;;3.58;3.28;;;;;;;;;;5004363;28;20207;-35
2022/06/12 06:23:57;;;;;;;3.63;3.25;;;;;;;;;;5012734;28;20207;-33
2022/06/12 06:26:24;;;;;;;3.30;3.00;;;;;;;;;;5006848;28;20234;-33
2022/06/12 06:28:52;;;;;;;3.10;2.90;;;;;;;;;;5009186;28;20230;-31
2022/06/12 06:31:19;;;;;;;4.97;2.97;;;;;;;;;;5001247;28;20210;-34
2022/06/12 06:33:46;;;;;;;2.90;2.60;;;;;;;;;;5004567;28;20212;-35
2022/06/12 06:36:15;;;;;;;4.03;3.05;;;;;;;;;;5000497;28;20217;-35
2022/06/12 06:38:42;;;;;;;4.13;2.85;;;;;;;;;;5004125;28;20216;-34
2022/06/12 06:41:10;;;;;;;2.80;2.60;;;;;;;;;;5004594;28;20230;-37
2022/06/12 06:46:15;;;;;;;3.50;3.00;;;;;;;;;;5009980;28;20236;-39
2022/06/12 06:48:42;;;;;;;3.08;2.78;;;;;;;;;;5005316;28;20215;-33
2022/06/12 06:51:09;;;;;;;3.17;2.78;;;;;;;;;;5007056;28;20196;-41
2022/06/12 06:53:37;;;;;;;4.65;2.58;;;;;;;;;;4990035;28;20215;-36
2022/06/12 06:56:04;;;;;;;5.50;3.03;;;;;;;;;;4989414;28;20222;-34
2022/06/12 06:58:33;;;;;;;5.72;2.63;;;;;;;;;;4996818;28;20200;-33
2022/06/12 07:01:00;;;;;;;2.90;2.53;;;;;;;;;;5005112;28;20223;-34
2022/06/12 07:03:27;;;;;;;3.50;2.47;;;;;;;;;;5002778;28;20229;-33
2022/06/12 07:05:55;;;;;;;3.67;2.40;;;;;;;;;;5002380;28;20238;-35
2022/06/12 07:08:22;;;;;;;2.83;2.63;;;;;;;;;;4994859;28;20334;-39
2022/06/12 07:10:50;;;;;;;2.85;2.60;;;;;;;;;;4997892;28;20211;-30
2022/06/12 07:13:18;;;;;;;3.90;2.63;;;;;;;;;;5001237;28;20207;-34
2022/06/12 07:15:47;;;;;;;2.95;2.72;;;;;;;;;;4995914;28;20207;-37
2022/06/12 07:18:15;;;;;;;2.55;2.30;;;;;;;;;;5005881;28;20206;-36
2022/06/12 07:20:45;;;;;;;3.25;2.47;;;;;;;;;;5004883;28;20226;-32
2022/06/12 07:23:14;;;;;;;2.75;2.50;;;;;;;;;;5015482;28;20305;-34
2022/06/12 07:25:51;;;;;;;2.90;2.60;;;;;;;;;;5006056;28;20215;-36
2022/06/12 07:28:19;;;;;;;2.75;2.50;;;;;;;;;;4993544;28;20203;-37
2022/06/12 07:30:50;;;;;;;2.58;2.38;;;;;;;;;;4996025;28;20210;-37
2022/06/12 07:33:18;;;;;;;3.20;2.53;;;;;;;;;;4997001;28;20195;-35
2022/06/12 07:35:46;;;;;;;4.30;2.22;;;;;;;;;;5007312;28;20211;-40
2022/06/12 07:38:13;;;;;;;3.53;2.20;;;;;;;;;;5013000;28;20222;-32
2022/06/12 07:40:42;;;;;;;2.42;2.20;;;;;;;;;;5013439;28;20234;-30
2022/06/12 07:43:09;;;;;;;3.58;2.33;;;;;;;;;;5004549;28;20210;-42
2022/06/12 07:45:37;;;;;;;2.75;2.10;;;;;;;;;;5010388;28;20211;-34
2022/06/12 07:48:05;;;;;;;2.83;2.30;;;;;;;;;;5002798;28;20287;-34
2022/06/12 07:50:33;;;;;;;3.05;2.17;;;;;;;;;;5006172;28;20202;-35
2022/06/12 07:53:00;;;;;;;3.95;2.20;;;;;;;;;;5005371;28;20195;-35
2022/06/12 07:55:28;;;;;;;3.60;2.70;;;;;;;;;;4999225;28;20215;-36
2022/06/12 07:57:56;;;;;;;2.22;2.13;;;;;;;;;;5007402;28;20207;-35
2022/06/12 08:00:24;;;;;;;4.25;2.40;;;;;;;;;;5001258;28;20211;-38
2022/06/12 08:02:51;;;;;;;2.78;2.47;;;;;;;;;;5003293;28;20208;-34
2022/06/12 08:05:21;;;;;;;2.80;2.47;;;;;;;;;;5004266;28;20211;-37
2022/06/12 08:07:48;;;;;;;3.47;2.50;;;;;;;;;;4996293;28;20223;-37
2022/06/12 08:10:15;;;;;;;3.03;2.38;;;;;;;;;;5007837;28;20206;-36
2022/06/12 08:12:45;;;;;;;3.22;2.13;;;;;;;;;;5004860;28;20218;-36
2022/06/12 08:15:16;;;;;;;5.63;2.50;;;;;;;;;;4999354;28;20210;-40
2022/06/12 08:17:43;;;;;;;2.38;2.20;;;;;;;;;;4995794;28;20247;-35
2022/06/12 08:20:26;;;;;;;3.42;2.33;;;;;;;;;;4993343;28;20221;-31
2022/06/12 08:22:56;;;;;;;3.58;2.40;;;;;;;;;;5005681;28;20326;-39
2022/06/12 08:25:23;;;;;;;2.90;2.63;;;;;;;;;;5007288;28;20195;-39
2022/06/12 08:27:50;;;;;;;2.30;2.00;;;;;;;;;;5004094;28;20230;-36
2022/06/12 08:30:17;;;;;;;2.28;1.90;;;;;;;;;;5004258;28;20203;-31
2022/06/12 08:32:46;;;;;;;2.78;2.20;;;;;;;;;;5008339;28;20214;-30
2022/06/12 08:35:14;;;;;;;3.50;2.15;;;;;;;;;;4999394;28;20210;-33
2022/06/12 08:37:41;;;;;;;2.53;2.30;;;;;;;;;;4995906;28;20292;-31
2022/06/12 08:40:17;;;;;;;5.50;2.35;;;;;;;;;;4991661;28;20310;-35
2022/06/12 08:42:47;;;;;;;2.25;2.00;;;;;;;;;;5009532;28;20211;-35
2022/06/12 08:45:16;;;;;;;2.10;2.00;;;;;;;;;;5004697;28;20294;-37
2022/06/12 08:47:47;;;;;;;2.28;2.08;;;;;;;;;;5006832;28;20227;-34
2022/06/12 08:50:20;;;;;;;5.43;2.53;;;;;;;;;;5012397;28;20207;-36
2022/06/12 08:52:54;;;;;;;4.97;2.28;;;;;;;;;;5012763;28;20215;-35
2022/06/12 08:55:26;;;;;;;2.25;2.10;;;;;;;;;;5004273;28;20208;-32
2022/06/12 08:57:55;;;;;;;2.67;2.30;;;;;;;;;;4995577;28;20234;-35
2022/06/12 09:00:24;;;;;;;4.90;2.10;;;;;;;;;;4997317;28;20220;-36
2022/06/12 09:02:52;;;;;;;2.80;2.30;;;;;;;;;;4998164;28;20211;-32
2022/06/12 09:05:21;;;;;;;4.28;2.38;;;;;;;;;;4997828;28;20239;-38
2022/06/12 09:07:50;;;;;;;2.38;2.10;;;;;;;;;;5011439;28;20223;-39
2022/06/12 09:10:21;;;;;;;2.15;1.90;;;;;;;;;;5001677;28;20300;-39
2022/06/12 09:12:51;;;;;;;3.08;2.10;;;;;;;;;;5003851;28;20285;-35
2022/06/12 09:15:26;;;;;;;4.68;2.17;;;;;;;;;;4999439;28;20199;-37
2022/06/12 09:17:57;;;;;;;2.10;1.90;;;;;;;;;;4991479;28;20224;-38
2022/06/12 09:20:32;;;;;;;3.88;1.70;;;;;;;;;;5006486;28;20222;-34
2022/06/12 09:23:03;;;;;;;2.58;1.95;;;;;;;;;;5006323;28;20199;-36
2022/06/12 09:25:33;;;;;;;2.00;1.90;;;;;;;;;;5011391;28;20211;-39
2022/06/12 09:28:05;;;;;;;3.55;1.73;;;;;;;;;;4998318;28;20214;-32
2022/06/12 09:30:37;;;;;;;2.22;1.88;;;;;;;;;;4999931;28;20227;-32
2022/06/12 09:33:09;;;;;;;1.85;1.75;;;;;;;;;;5000060;28;20234;-34
2022/06/12 09:35:57;;;;;;;2.92;1.90;;;;;;;;;;4998167;28;20203;-30
2022/06/12 09:38:32;;;;;;;2.58;1.63;;;;;;;;;;5003949;28;20290;-41
2022/06/12 09:41:07;;;;;;;5.32;2.50;;;;;;;;;;4994382;28;20213;-35
2022/06/12 09:43:38;;;;;;;2.22;1.60;;;;;;;;;;4997410;28;20206;-31
2022/06/12 09:46:10;;;;;;;2.33;1.67;;;;;;;;;;4993079;28;20240;-38
2022/06/12 09:48:47;;;;;;;4.10;1.70;;;;;;;;;;4994750;28;20211;-33
2022/06/12 09:51:18;;;;;;;4.05;1.98;;;;;;;;;;5010886;28;20212;-37
2022/06/12 09:54:00;;;;;;;2.17;1.80;;;;;;;;;;4991622;28;20221;-36
2022/06/12 09:56:32;;;;;;;1.77;1.67;;;;;;;;;;4992143;28;20310;-40
2022/06/12 09:59:03;;;;;;;2.47;1.70;;;;;;;;;;5007190;28;20244;-37
2022/06/12 10:01:32;;;;;;;1.77;1.67;;;;;;;;;;5003715;28;20216;-38
2022/06/12 10:04:02;;;;;;;3.25;1.48;;;;;;;;;;5007119;28;20205;-35
2022/06/12 10:06:32;;;;;;;4.07;1.48;;;;;;;;;;5003365;28;20234;-30
2022/06/12 10:09:03;;;;;;;1.58;1.48;;;;;;;;;;4998406;28;20202;-34
2022/06/12 10:11:31;;;;;;;1.27;1.20;;;;;;;;;;5001186;28;20314;-35
2022/06/12 10:14:00;;;;;;;2.13;1.42;;;;;;;;;;5008177;28;20203;-36
2022/06/12 10:16:31;;;;;;;1.52;1.38;;;;;;;;;;4999903;28;20230;-33
2022/06/12 10:19:01;;;;;;;2.35;1.45;;;;;;;;;;4998139;28;20283;-33
2022/06/12 10:21:29;;;;;;;2.30;1.40;;;;;;;;;;4999439;28;20219;-34
2022/06/12 10:23:57;;;;;;;3.15;1.58;;;;;;;;;;5001059;28;20208;-33
2022/06/12 10:26:25;;;;;;;2.42;1.67;;;;;;;;;;4992233;28;20231;-38
2022/06/12 10:29:04;;;;;;;2.28;1.50;;;;;;;;;;5008068;28;20279;-32
2022/06/12 10:31:34;;;;;;;2.95;1.70;;;;;;;;;;5001445;28;20211;-38
2022/06/12 10:34:16;;;;;;;1.48;1.40;;;;;;;;;;5001402;28;20206;-34
2022/06/12 10:36:51;;;;;;;2.35;2.10;;;;;;;;;;4999111;28;20234;-33
2022/06/12 10:39:22;;;;;;;5.93;1.77;;;;;;;;;;4994061;28;20199;-34
2022/06/12 10:41:51;;;;;;;3.72;1.40;;;;;;;;;;5001417;28;20226;-33
2022/06/12 10:44:42;;;;;;;4.30;1.60;;;;;;;;;;5005959;28;20220;-34
2022/06/12 10:47:22;;;;;;;2.15;1.50;;;;;;;;;;4989766;28;20227;-31
2022/06/12 10:49:50;;;;;;;1.50;1.40;;;;;;;;;;5000196;28;20211;-36
2022/06/12 10:52:20;;;;;;;2.47;1.50;;;;;;;;;;4995277;28;20285;-34
2022/06/12 10:54:47;;;;;;;1.60;1.50;;;;;;;;;;4990308;28;20261;-28
2022/06/12 10:57:27;;;;;;;2.17;1.48;;;;;;;;;;5000560;28;20226;-36
2022/06/12 10:59:57;;;;;;;1.48;1.30;;;;;;;;;;5001406;28;20232;-35
2022/06/12 11:02:38;;;;;;;2.63;1.60;;;;;;;;;;5001477;28;20226;-34
2022/06/12 11:05:14;;;;;;;1.80;1.50;;;;;;;;;;5000338;28;20227;-32
2022/06/12 11:07:46;;;;;;;1.42;1.33;;;;;;;;;;5004011;28;20238;-38
2022/06/12 11:10:20;;;;;;;3.35;1.80;;;;;;;;;;4997120;28;20217;-32
2022/06/12 11:12:52;;;;;;;1.90;1.40;;;;;;;;;;5001124;28;20212;-38
2022/06/12 11:15:24;;;;;;;1.70;1.60;;;;;;;;;;4998722;28;20206;-31
2022/06/12 11:18:00;;;;;;;1.65;1.55;;;;;;;;;;4998245;28;20225;-30
2022/06/12 11:20:33;;;;;;;1.40;1.23;;;;;;;;;;5001184;28;20218;-37
2022/06/12 11:23:16;;;;;;;1.63;1.45;;;;;;;;;;5003672;28;20193;-34
2022/06/12 11:25:54;;;;;;;1.65;1.55;;;;;;;;;;4993094;28;20210;-32
2022/06/12 11:28:28;;;;;;;2.90;1.42;;;;;;;;;;5003059;28;20198;-36
2022/06/12 11:31:01;;;;;;;2.53;1.65;;;;;;;;;;5006982;28;20202;-36
2022/06/12 11:34:01;;;;;;;1.90;1.67;;;;;;;;;;5001591;28;20206;-33
2022/06/12 11:36:35;;;;;;;1.65;1.55;;;;;;;;;;4926355;29;20231;-33
2022/06/12 11:39:16;;;;;;;2.05;1.50;;;;;;;;;;4930018;29;20246;-32
2022/06/12 11:41:52;;;;;;;1.70;1.42;;;;;;;;;;4968112;28;20235;-37
2022/06/12 11:44:25;;;;;;;2.15;1.60;;;;;;;;;;4993791;28;20247;-37
2022/06/12 11:46:58;;;;;;;1.83;1.58;;;;;;;;;;5007781;28;20253;-33
2022/06/12 11:49:32;;;;;;;2.80;1.80;;;;;;;;;;4995144;28;20209;-34
2022/06/12 11:52:07;;;;;;;3.30;1.70;;;;;;;;;;5001443;28;20206;-33
2022/06/12 11:54:45;;;;;;;1.95;1.40;;;;;;;;;;4994815;28;20213;-36
2022/06/12 11:57:16;;;;;;;1.95;1.50;;;;;;;;;;4997856;28;20738;-32
2022/06/12 11:59:49;;;;;;;2.33;1.80;;;;;;;;;;5011589;28;20213;-35
2022/06/12 12:02:25;;;;;;;3.22;1.23;;;;;;;;;;5000145;28;20231;-34
2022/06/12 12:05:03;;;;;;;3.10;1.67;;;;;;;;;;5000978;28;20348;-36
2022/06/12 12:07:40;;;;;;;1.92;1.73;;;;;;;;;;5009669;28;20225;-36
2022/06/12 12:10:14;;;;;;;2.53;1.52;;;;;;;;;;5013129;28;20204;-36
2022/06/12 12:12:42;;;;;;;2.35;1.52;;;;;;;;;;5001946;28;20495;-34
2022/06/12 12:15:17;;;;;;;4.65;1.58;;;;;;;;;;4999800;28;20279;-34
2022/06/12 12:17:46;;;;;;;2.22;1.65;;;;;;;;;;4997009;28;20240;-37
2022/06/12 12:20:17;;;;;;;1.95;1.63;;;;;;;;;;5009108;28;20211;-36
2022/06/12 12:22:47;;;;;;;1.85;1.60;;;;;;;;;;4995182;28;20269;-34
2022/06/12 12:25:18;;;;;;;2.30;1.80;;;;;;;;;;4993545;28;20217;-35
2022/06/12 12:27:47;;;;;;;2.92;1.90;;;;;;;;;;5005646;28;20315;-37
2022/06/12 12:30:17;;;;;;;2.60;1.60;;;;;;;;;;5007157;28;20224;-31
2022/06/12 12:32:44;;;;;;;2.00;1.90;;;;;;;;;;5001240;28;20212;-34
2022/06/12 12:41:11;;;;;;;2.08;1.50;;;;;;;;;;5014387;28;20264;-36
2022/06/12 12:43:31;;;;;;;2.65;1.90;;;;;;;;;;5246349;23;20371;-38
2022/06/12 12:46:03;;;;;;;2.70;2.00;;;;;;;;;;4997822;28;20223;-33
2022/06/12 12:48:39;;;;;;;1.65;1.45;;;;;;;;;;4994754;28;20200;-34
2022/06/12 12:51:06;;;;;;;2.05;1.90;;;;;;;;;;5003326;28;20188;-35
2022/06/12 12:53:37;;;;;;;2.15;1.92;;;;;;;;;;4995397;28;20557;-37
2022/06/12 12:56:05;;;;;;;2.00;1.90;;;;;;;;;;5005470;28;20230;-37
2022/06/12 12:58:33;;;;;;;3.25;1.92;;;;;;;;;;5004740;28;20269;-41
2022/06/12 13:01:09;;;;;;;1.90;1.80;;;;;;;;;;5014243;28;20211;-43
2022/06/12 13:03:39;;;;;;;2.92;1.70;;;;;;;;;;5005791;28;20210;-37
2022/06/12 13:06:17;;;;;;;1.67;1.58;;;;;;;;;;4999522;28;20230;-35
2022/06/12 13:08:51;;;;;;;3.08;2.03;;;;;;;;;;5015076;28;20191;-33
2022/06/12 13:11:29;;;;;;;2.80;1.90;;;;;;;;;;5006611;28;20204;-42
2022/06/12 13:14:03;;;;;;;2.50;1.85;;;;;;;;;;5002067;28;20210;-41
2022/06/12 13:16:37;;;;;;;2.15;1.88;;;;;;;;;;4995179;28;20222;-40
2022/06/12 13:19:12;;;;;;;1.73;1.63;;;;;;;;;;5002378;28;20207;-34
2022/06/12 13:21:44;;;;;;;1.95;1.70;;;;;;;;;;4996455;28;20216;-39
2022/06/12 13:24:27;;;;;;;2.78;2.20;;;;;;;;;;4994174;28;20350;-38
2022/06/12 13:26:54;;;;;;;2.30;2.03;;;;;;;;;;4994978;28;20231;-39
2022/06/12 13:29:23;;;;;;;1.77;1.67;;;;;;;;;;5008605;28;20677;-41
2022/06/12 13:31:55;;;;;;;3.00;2.05;;;;;;;;;;5001884;28;20208;-38
2022/06/12 13:34:22;;;;;;;1.90;1.80;;;;;;;;;;5002921;28;20204;-34
2022/06/12 13:36:49;;;;;;;3.47;1.80;;;;;;;;;;5012548;28;20233;-40
2022/06/12 13:39:21;;;;;;;2.47;2.15;;;;;;;;;;5013416;28;20211;-41
2022/06/12 13:41:51;;;;;;;1.88;1.77;;;;;;;;;;5003063;28;20227;-40
2022/06/12 13:44:24;;;;;;;2.38;2.15;;;;;;;;;;5007491;28;20229;-38
2022/06/12 13:46:51;;;;;;;2.42;1.80;;;;;;;;;;5008691;28;20238;-36
2022/06/12 13:49:25;;;;;;;3.60;2.00;;;;;;;;;;4998168;28;20207;-40
2022/06/12 13:51:55;;;;;;;4.95;2.20;;;;;;;;;;5006682;28;20530;-36
2022/06/12 13:54:23;;;;;;;1.88;1.70;;;;;;;;;;5013334;28;20218;-43
2022/06/12 13:56:53;;;;;;;2.30;2.10;;;;;;;;;;5004804;28;20231;-35
2022/06/12 13:59:22;;;;;;;4.90;2.17;;;;;;;;;;5008448;28;20226;-41
2022/06/12 14:01:50;;;;;;;1.65;1.55;;;;;;;;;;4996023;28;20238;-36
2022/06/12 14:04:20;;;;;;;2.85;2.17;;;;;;;;;;5001362;28;20200;-40
2022/06/12 14:06:48;;;;;;;3.17;2.10;;;;;;;;;;4992855;28;20232;-38
2022/06/12 14:09:16;;;;;;;3.17;2.33;;;;;;;;;;4991863;28;20204;-38
2022/06/12 14:11:44;;;;;;;1.95;1.80;;;;;;;;;;4999957;28;20212;-37
2022/06/12 14:14:33;;;;;;;2.65;2.42;;;;;;;;;;4998292;28;20201;-36
2022/06/12 14:17:01;;;;;;;2.35;2.15;;;;;;;;;;4996934;28;20231;-36
2022/06/12 14:19:29;;;;;;;4.53;2.97;;;;;;;;;;5004059;28;20301;-39
2022/06/12 14:22:03;;;;;;;2.28;1.98;;;;;;;;;;5006069;28;20227;-36
2022/06/12 14:24:34;;;;;;;2.78;2.00;;;;;;;;;;5011126;28;20226;-38
2022/06/12 14:27:01;;;;;;;2.55;2.05;;;;;;;;;;4997334;28;20234;-33
2022/06/12 14:29:41;;;;;;;2.97;2.17;;;;;;;;;;5000827;28;20203;-36
2022/06/12 14:32:16;;;;;;;2.85;1.95;;;;;;;;;;5002671;28;20207;-32
2022/06/12 14:35:01;;;;;;;2.78;1.70;;;;;;;;;;4992940;28;20262;-41
2022/06/12 14:37:29;;;;;;;2.72;2.15;;;;;;;;;;5009214;28;20231;-32
2022/06/12 14:39:56;;;;;;;2.35;2.15;;;;;;;;;;5006148;28;20501;-40
2022/06/12 14:42:26;;;;;;;5.68;1.88;;;;;;;;;;4996108;28;20227;-36
2022/06/12 14:44:54;;;;;;;4.55;2.35;;;;;;;;;;5004292;28;20618;-38
2022/06/12 14:47:22;;;;;;;4.53;2.13;;;;;;;;;;5002849;28;20238;-33
2022/06/12 14:49:51;;;;;;;2.10;2.00;;;;;;;;;;5001339;28;20211;-33
2022/06/12 14:52:21;;;;;;;1.90;1.80;;;;;;;;;;5009550;28;20211;-35
2022/06/12 14:54:48;;;;;;;4.97;2.17;;;;;;;;;;5011828;28;20219;-38
2022/06/12 14:57:18;;;;;;;2.33;1.90;;;;;;;;;;4998266;28;20227;-37
2022/06/12 14:59:45;;;;;;;2.08;1.77;;;;;;;;;;5012271;28;20199;-31
2022/06/12 15:02:17;;;;;;;2.20;2.00;;;;;;;;;;5008437;28;20231;-37
2022/06/12 15:04:44;;;;;;;2.03;1.92;;;;;;;;;;4996339;28;20215;-39
2022/06/12 15:07:11;;;;;;;2.55;1.70;;;;;;;;;;4999203;28;20224;-40
2022/06/12 15:09:39;;;;;;;3.22;1.90;;;;;;;;;;4992664;28;20211;-43
2022/06/12 15:12:06;;;;;;;3.28;1.80;;;;;;;;;;4999882;28;20214;-38
2022/06/12 15:14:33;;;;;;;2.00;1.90;;;;;;;;;;4993732;28;20203;-40
2022/06/12 15:17:00;;;;;;;5.13;3.40;;;;;;;;;;4990113;28;20227;-36
2022/06/12 15:19:29;;;;;;;1.85;1.75;;;;;;;;;;4997208;28;20204;-40
2022/06/12 15:21:56;;;;;;;4.18;2.20;;;;;;;;;;5010030;28;20203;-37